This is the latest recevied weather packets stored in our database for station/object KB0Y. If no packets are shown the sender has not sent any weather packets the latest 10 day(s).
| Time | Temp. | Humidity | Pressure | Rain* | Wind** | Luminosity | Snow |
|---|---|---|---|---|---|---|---|
| 1777773514 | 14.44° C | 99% | 1018.6 hPa | 0 mm | - | 0 W/m² | - |
| 1777773212 | 14.44° C | 99% | 1018.6 hPa | 0 mm | - | 0 W/m² | - |
| 1777772907 | 14.44° C | 99% | 1018.3 hPa | 0 mm | - | 0 W/m² | - |
| 1777768364 | 16.11° C | 99% | 1017.2 hPa | 0 mm | - | 0 W/m² | - |
| 1777768060 | 16.11° C | 99% | 1017.2 hPa | 0 mm | - | 0 W/m² | - |
| 1777767453 | 16.67° C | 99% | 1016.9 hPa | 0 mm | - | 0 W/m² | - |
| 1777767150 | 16.67° C | 98% | 1016.9 hPa | 0 mm | - | 1 W/m² | - |
| 1777766848 | 16.67° C | 97% | 1016.9 hPa | 0 mm | - | 5 W/m² | - |
| 1777766545 | 17.22° C | 96% | 1016.9 hPa | 0 mm | - | 8 W/m² | - |
| 1777766242 | 17.22° C | 95% | 1016.6 hPa | 0 mm | - | 17 W/m² | - |
| 1777765940 | 17.22° C | 94% | 1016.2 hPa | 0 mm | - | 22 W/m² | - |
| 1777765636 | 17.22° C | 91% | 1016.6 hPa | 0 mm | - | 26 W/m² | - |
| 1777765029 | 17.22° C | 91% | 1016.2 hPa | 0 mm | - | 30 W/m² | - |
| 1777764727 | 17.22° C | 90% | 1016.2 hPa | 0 mm | - | 32 W/m² | - |
| 1777761696 | 17.78° C | 89% | 1016.2 hPa | 0 mm | - | 114 W/m² | - |
| 1777761393 | 17.78° C | 90% | 1015.9 hPa | 0 mm | - | 102 W/m² | - |
| 1777761091 | 17.22° C | 90% | 1015.9 hPa | 0 mm | - | 117 W/m² | - |
| 1777760788 | 17.22° C | 93% | 1015.9 hPa | 0 mm | - | 387 W/m² | - |
| 1777760180 | 16.67° C | 96% | 1015.9 hPa | 0 mm | - | 400 W/m² | - |
| 1777759878 | 16.67° C | 97% | 1015.9 hPa | 0 mm | - | 472 W/m² | - |
| 1777759270 | 16.11° C | 99% | 1015.9 hPa | 0 mm | - | 195 W/m² | - |
| 1777758968 | 16.11° C | 99% | 1015.9 hPa | 0 mm | - | 108 W/m² | - |
| 1777757756 | 16.67° C | 99% | 1015.9 hPa | 0 mm | - | 64 W/m² | - |
| 1777757152 | 16.67° C | 99% | 1015.6 hPa | 0 mm | - | 213 W/m² | - |
| 1777756850 | 16.67° C | 99% | 1015.9 hPa | 0 mm | - | 204 W/m² | - |
* Rain latest hour (hover to see other rain measurements)
** Current wind speed in m/s (hover to see current wind gust speed)